createdAt,value
2023-05-04T00:02:40.781Z,15.60
2023-05-04T00:06:23.612Z,17.50
2023-05-04T00:10:07.984Z,17.20
2023-05-04T00:13:52.366Z,17.40
2023-05-04T00:17:35.097Z,18.73
2023-05-04T00:21:17.909Z,17.27
2023-05-04T00:25:00.641Z,21.57
2023-05-04T00:28:43.333Z,20.10
2023-05-04T00:32:27.688Z,20.50
2023-05-04T00:36:10.801Z,22.10
2023-05-04T00:39:53.631Z,20.67
2023-05-04T00:43:36.358Z,21.47
2023-05-04T00:47:19.956Z,20.57
2023-05-04T00:51:04.214Z,22.43
2023-05-04T00:54:47.903Z,21.43
2023-05-04T00:58:30.929Z,20.63
2023-05-04T01:02:13.708Z,19.53
2023-05-04T01:06:05.916Z,17.50
2023-05-04T01:09:52.132Z,17.90
2023-05-04T01:13:36.092Z,22.83
2023-05-04T01:17:18.801Z,18.33
2023-05-04T01:21:01.493Z,20.80
2023-05-04T01:24:45.718Z,21.70
2023-05-04T01:28:34.619Z,18.73
2023-05-04T01:32:19.161Z,20.70
2023-05-04T01:36:02.273Z,18.30
2023-05-04T01:39:46.381Z,23.83
2023-05-04T01:43:29.150Z,22.67
2023-05-04T01:47:11.947Z,20.53
2023-05-04T01:50:55.676Z,20.70
2023-05-04T01:54:38.472Z,19.43
2023-05-04T01:58:22.730Z,21.17
2023-05-04T02:02:05.611Z,20.23
2023-05-04T02:05:48.309Z,20.17
2023-05-04T02:09:31.780Z,20.63
2023-05-04T02:13:14.521Z,20.40
2023-05-04T02:16:58.893Z,20.63
2023-05-04T02:20:41.921Z,18.87
2023-05-04T02:24:24.696Z,22.17
2023-05-04T02:28:07.488Z,21.47
2023-05-04T02:31:50.567Z,21.20
2023-05-04T02:35:34.664Z,21.60
2023-05-04T02:39:17.493Z,20.30
2023-05-04T02:43:00.270Z,22.03
2023-05-04T02:46:44.083Z,21.73
2023-05-04T02:50:26.733Z,20.23
2023-05-04T02:54:10.752Z,24.93
2023-05-04T02:57:53.419Z,22.73
2023-05-04T03:01:36.220Z,23.27
2023-05-04T03:05:18.928Z,23.23
2023-05-04T03:09:01.910Z,22.40
2023-05-04T03:12:46.358Z,26.60
2023-05-04T03:16:29.210Z,24.50
2023-05-04T03:20:14.063Z,24.60
2023-05-04T03:23:59.329Z,25.07
2023-05-04T03:27:42.077Z,23.13
2023-05-04T03:31:26.278Z,24.17
2023-05-04T03:35:09.805Z,25.57
2023-05-04T03:38:52.491Z,24.47
2023-05-04T03:42:35.178Z,24.97
2023-05-04T03:46:17.886Z,23.70
2023-05-04T03:50:02.606Z,26.23
2023-05-04T03:53:45.711Z,25.27
2023-05-04T03:57:28.469Z,27.90
2023-05-04T04:01:11.132Z,26.63
2023-05-04T04:04:53.795Z,23.50
2023-05-04T04:08:37.899Z,27.13
2023-05-04T04:12:20.855Z,25.63
2023-05-04T04:16:03.663Z,24.60
2023-05-04T04:19:46.382Z,25.83
2023-05-04T04:23:29.133Z,27.57
2023-05-04T04:27:13.732Z,29.03
2023-05-04T04:30:56.758Z,27.60
2023-05-04T04:34:39.765Z,26.70
2023-05-04T04:38:22.443Z,25.00
2023-05-04T04:42:05.116Z,24.30
2023-05-04T04:45:49.513Z,26.37
2023-05-04T04:49:32.276Z,24.50
2023-05-04T04:53:14.900Z,25.07
2023-05-04T04:57:00.587Z,23.07
2023-05-04T05:00:45.310Z,25.67
2023-05-04T05:04:29.663Z,21.93
2023-05-04T05:08:12.337Z,24.77
2023-05-04T05:11:55.014Z,22.37
2023-05-04T05:15:37.696Z,24.83
2023-05-04T05:19:20.515Z,22.57
2023-05-04T05:23:05.341Z,26.40
2023-05-04T05:26:48.338Z,25.87
2023-05-04T05:30:31.292Z,26.60
2023-05-04T05:34:14.008Z,21.83
2023-05-04T05:37:57.060Z,21.43
2023-05-04T05:41:41.242Z,23.83
2023-05-04T05:45:24.164Z,19.57
2023-05-04T05:49:07.438Z,20.00
2023-05-04T05:52:50.311Z,25.40
2023-05-04T05:56:32.984Z,20.00
2023-05-04T06:00:18.637Z,21.50
2023-05-04T06:04:04.061Z,21.77
2023-05-04T06:07:47.065Z,19.93
2023-05-04T06:11:29.771Z,18.40
2023-05-04T06:15:14.412Z,19.27
2023-05-04T06:18:58.418Z,18.00
2023-05-04T06:22:41.165Z,19.70
2023-05-04T06:26:23.827Z,18.53
2023-05-04T06:30:08.162Z,20.23
2023-05-04T06:33:51.181Z,18.63
2023-05-04T06:37:35.446Z,19.20
2023-05-04T06:41:18.227Z,21.00
2023-05-04T06:45:01.125Z,17.90
2023-05-04T06:48:43.813Z,18.57
2023-05-04T06:52:29.582Z,17.27
2023-05-04T06:56:13.690Z,27.33
2023-05-04T06:59:56.384Z,17.33
2023-05-04T07:03:39.326Z,14.77
2023-05-04T07:07:22.199Z,14.73
2023-05-04T07:11:05.480Z,14.60
2023-05-04T07:14:49.769Z,12.53
2023-05-04T07:18:32.572Z,11.97
2023-05-04T07:22:15.251Z,15.80
2023-05-04T07:25:57.957Z,11.67
2023-05-04T07:29:41.681Z,13.17
2023-05-04T07:33:26.628Z,10.33
2023-05-04T07:37:09.798Z,11.00
2023-05-04T07:40:52.744Z,9.53
2023-05-04T07:44:35.536Z,9.70
2023-05-04T07:48:18.292Z,10.83
2023-05-04T07:52:02.403Z,10.60
2023-05-04T07:55:45.138Z,10.20
2023-05-04T07:59:27.806Z,10.77
2023-05-04T08:03:11.054Z,11.20
2023-05-04T08:06:53.877Z,10.33
2023-05-04T08:10:38.748Z,10.13
2023-05-04T08:14:21.870Z,8.90
2023-05-04T08:18:04.640Z,9.17
2023-05-04T08:21:47.437Z,9.70
2023-05-04T08:25:30.090Z,7.17
2023-05-04T08:29:14.244Z,9.43
2023-05-04T08:33:00.409Z,8.93
2023-05-04T08:36:43.159Z,8.53
2023-05-04T08:40:25.860Z,9.27
2023-05-04T08:44:10.119Z,5.97
2023-05-04T08:47:54.297Z,8.47
2023-05-04T08:51:37.454Z,7.37
2023-05-04T08:55:20.886Z,8.30
2023-05-04T08:59:03.919Z,5.53
2023-05-04T09:02:47.124Z,6.50
2023-05-04T09:06:32.592Z,6.27
2023-05-04T09:10:15.399Z,6.43
2023-05-04T09:13:58.317Z,11.57
2023-05-04T09:17:50.934Z,7.17
2023-05-04T09:21:41.319Z,6.87
2023-05-04T09:25:24.419Z,7.27
2023-05-04T09:29:13.875Z,5.73
2023-05-04T09:32:57.246Z,6.77
2023-05-04T09:36:42.117Z,5.40
2023-05-04T09:40:32.562Z,8.47
2023-05-04T09:44:22.462Z,7.67
2023-05-04T09:48:16.298Z,7.17
2023-05-04T09:52:02.509Z,8.30
2023-05-04T09:55:46.833Z,4.97
2023-05-04T09:59:30.496Z,6.50
2023-05-04T10:03:14.367Z,7.47
2023-05-04T10:06:57.185Z,6.63
2023-05-04T10:10:41.404Z,7.40
2023-05-04T10:14:25.066Z,7.07
2023-05-04T10:18:16.528Z,5.87
2023-05-04T10:22:09.221Z,5.00
2023-05-04T10:26:30.298Z,6.33
2023-05-04T10:30:16.813Z,7.20
2023-05-04T10:33:59.530Z,7.73
2023-05-04T10:37:51.832Z,5.30
2023-05-04T10:41:34.537Z,4.87
2023-05-04T10:45:18.840Z,6.57
2023-05-04T10:49:01.700Z,5.47
2023-05-04T10:52:47.977Z,7.33
2023-05-04T10:56:31.168Z,5.73
2023-05-04T11:00:15.085Z,6.23
2023-05-04T11:03:59.620Z,6.93
2023-05-04T11:07:42.336Z,4.83
2023-05-04T11:11:25.396Z,6.70
2023-05-04T11:15:09.317Z,7.20
2023-05-04T11:18:52.082Z,6.10
2023-05-04T11:22:36.190Z,6.00
2023-05-04T11:26:18.939Z,6.00
2023-05-04T11:30:03.044Z,6.20
2023-05-04T11:33:48.071Z,5.40
2023-05-04T11:37:30.944Z,5.20
2023-05-04T11:41:15.053Z,4.77
2023-05-04T11:44:57.846Z,6.63
2023-05-04T11:48:40.956Z,5.77
2023-05-04T11:52:24.218Z,8.43
2023-05-04T11:56:08.767Z,7.37
2023-05-04T11:59:52.826Z,6.90
2023-05-04T12:03:48.608Z,5.40
2023-05-04T12:07:37.846Z,8.70
2023-05-04T12:11:25.911Z,5.63
2023-05-04T12:15:11.333Z,6.60
2023-05-04T12:19:02.891Z,8.93
2023-05-04T12:22:45.878Z,8.73
2023-05-04T12:26:28.872Z,6.53
2023-05-04T12:30:14.164Z,7.83
2023-05-04T12:33:56.859Z,10.47
2023-05-04T12:37:39.575Z,5.63
2023-05-04T12:41:22.554Z,6.68
2023-05-04T12:45:06.521Z,6.73
2023-05-04T12:48:50.779Z,6.57
2023-05-04T12:52:33.533Z,10.63
2023-05-04T12:56:16.293Z,7.60
2023-05-04T12:59:59.169Z,7.50
2023-05-04T13:03:42.071Z,7.60
2023-05-04T13:07:26.351Z,8.95
2023-05-04T13:11:09.012Z,7.15
2023-05-04T13:14:55.332Z,5.60
2023-05-04T13:18:38.217Z,9.10
2023-05-04T13:22:20.905Z,5.93
2023-05-04T13:26:05.020Z,9.68
2023-05-04T13:29:47.722Z,7.20
2023-05-04T13:33:31.049Z,6.25
2023-05-04T13:37:18.165Z,5.85
2023-05-04T13:41:00.903Z,5.65
2023-05-04T13:44:45.662Z,9.82
2023-05-04T13:48:28.363Z,7.28
2023-05-04T13:52:11.532Z,6.30
2023-05-04T13:55:54.149Z,4.13
2023-05-04T13:59:36.771Z,9.98
2023-05-04T14:03:20.890Z,10.00
2023-05-04T14:07:03.921Z,6.43
2023-05-04T14:10:46.615Z,7.35
2023-05-04T14:14:29.720Z,6.25
2023-05-04T14:18:12.903Z,8.95
2023-05-04T14:21:56.937Z,5.50
2023-05-04T14:25:41.983Z,7.28
2023-05-04T14:29:24.709Z,6.07
2023-05-04T14:33:07.412Z,4.75
2023-05-04T14:36:51.721Z,7.60
2023-05-04T14:40:37.008Z,7.75
2023-05-04T14:44:22.524Z,5.93
2023-05-04T14:48:05.840Z,7.38
2023-05-04T14:51:49.086Z,7.55
2023-05-04T14:55:33.481Z,6.05
2023-05-04T14:59:19.659Z,6.80
2023-05-04T15:03:02.584Z,7.10
2023-05-04T15:06:45.368Z,7.45
2023-05-04T15:10:28.040Z,6.45
2023-05-04T15:14:10.692Z,7.03
2023-05-04T15:17:54.831Z,6.30
2023-05-04T15:21:37.569Z,6.00
2023-05-04T15:25:23.317Z,5.68
2023-05-04T15:29:06.991Z,8.93
2023-05-04T15:32:49.734Z,10.77
2023-05-04T15:36:33.766Z,6.20
2023-05-04T15:40:16.452Z,5.10
2023-05-04T15:43:59.580Z,6.63
2023-05-04T15:47:42.378Z,6.32
2023-05-04T15:51:25.074Z,7.93
2023-05-04T15:55:24.460Z,7.53
2023-05-04T15:59:08.284Z,7.35
2023-05-04T16:02:51.019Z,5.70
2023-05-04T16:06:33.707Z,5.57
2023-05-04T16:10:17.818Z,5.70
2023-05-04T16:14:00.484Z,4.47
2023-05-04T16:17:43.194Z,4.60
2023-05-04T16:21:25.974Z,5.60
2023-05-04T16:25:11.228Z,4.78
2023-05-04T16:28:56.620Z,4.53
2023-05-04T16:32:39.416Z,5.95
2023-05-04T16:36:22.128Z,5.47
2023-05-04T16:40:13.503Z,6.10
2023-05-04T16:43:57.532Z,7.32
2023-05-04T16:47:40.222Z,5.80
2023-05-04T16:51:23.028Z,4.97
2023-05-04T16:55:09.029Z,6.20
2023-05-04T16:58:53.434Z,6.43
2023-05-04T17:02:37.691Z,9.38
2023-05-04T17:06:20.468Z,8.57
2023-05-04T17:10:06.925Z,6.50
2023-05-04T17:13:49.741Z,6.20
2023-05-04T17:17:32.476Z,6.72
2023-05-04T17:21:16.610Z,5.05
2023-05-04T17:24:59.275Z,11.25
2023-05-04T17:28:42.024Z,6.72
2023-05-04T17:32:24.757Z,7.15
2023-05-04T17:36:08.159Z,7.85
2023-05-04T17:39:52.218Z,8.13
2023-05-04T17:43:34.916Z,6.72
2023-05-04T17:47:17.569Z,10.20
2023-05-04T17:51:00.651Z,5.22
2023-05-04T17:54:43.314Z,7.88
2023-05-04T17:58:27.381Z,12.35
2023-05-04T18:02:10.073Z,11.43
2023-05-04T18:05:52.783Z,8.30
2023-05-04T18:09:35.442Z,9.13
2023-05-04T18:13:18.271Z,8.18
2023-05-04T18:17:02.472Z,8.23
2023-05-04T18:20:45.233Z,11.90
2023-05-04T18:24:27.904Z,8.88
2023-05-04T18:28:10.630Z,13.45
2023-05-04T18:31:53.369Z,12.43
2023-05-04T18:35:37.423Z,8.73
2023-05-04T18:39:20.299Z,7.63
2023-05-04T18:43:03.039Z,7.63
2023-05-04T18:46:46.094Z,7.88
2023-05-04T18:50:28.793Z,5.05
2023-05-04T18:54:14.881Z,7.93
2023-05-04T18:57:57.648Z,9.18
2023-05-04T19:01:40.447Z,10.35
2023-05-04T19:05:23.288Z,7.95
2023-05-04T19:09:07.959Z,11.90
2023-05-04T19:12:53.197Z,5.95
2023-05-04T19:16:35.947Z,6.80
2023-05-04T19:20:19.467Z,8.10
2023-05-04T19:24:02.319Z,7.50
2023-05-04T19:27:45.622Z,8.05
2023-05-04T19:31:30.139Z,8.18
2023-05-04T19:35:14.365Z,7.67
2023-05-04T19:38:57.373Z,9.47
2023-05-04T19:42:46.111Z,9.47
2023-05-04T19:46:31.952Z,8.07
2023-05-04T19:50:16.359Z,6.95
2023-05-04T19:53:59.222Z,7.60
2023-05-04T19:57:41.923Z,8.53
2023-05-04T20:01:25.085Z,7.10
2023-05-04T20:05:09.776Z,7.97
2023-05-04T20:08:53.860Z,5.87
2023-05-04T20:12:36.630Z,9.03
2023-05-04T20:16:19.552Z,8.50
2023-05-04T20:20:03.769Z,7.37
2023-05-04T20:23:47.796Z,7.47
2023-05-04T20:27:30.687Z,5.63
2023-05-04T20:31:13.377Z,10.53
2023-05-04T20:34:56.148Z,9.97
2023-05-04T20:38:39.809Z,7.00
2023-05-04T20:42:23.871Z,5.37
2023-05-04T20:46:06.733Z,6.20
2023-05-04T20:49:49.483Z,9.00
2023-05-04T20:53:36.357Z,9.60
2023-05-04T20:57:19.087Z,6.20
2023-05-04T21:01:05.257Z,9.37
2023-05-04T21:04:48.642Z,11.13
2023-05-04T21:08:31.365Z,9.67
2023-05-04T21:12:14.273Z,9.03
2023-05-04T21:15:59.571Z,6.67
2023-05-04T21:19:43.723Z,7.23
2023-05-04T21:23:26.455Z,12.90
2023-05-04T21:27:09.142Z,7.83
2023-05-04T21:30:51.981Z,6.83
2023-05-04T21:34:34.682Z,6.60
2023-05-04T21:38:21.167Z,7.90
2023-05-04T21:42:05.087Z,6.40
2023-05-04T21:45:47.828Z,7.70
2023-05-04T21:49:30.487Z,7.53
2023-05-04T21:53:13.150Z,9.80
2023-05-04T21:56:57.230Z,7.13
2023-05-04T22:00:39.993Z,11.40
2023-05-04T22:04:22.858Z,7.00
2023-05-04T22:08:05.558Z,6.93
2023-05-04T22:11:48.552Z,7.63
2023-05-04T22:15:46.389Z,10.43
2023-05-04T22:19:32.432Z,9.13
2023-05-04T22:23:15.187Z,7.10
2023-05-04T22:27:00.321Z,7.17
2023-05-04T22:30:44.552Z,9.57
2023-05-04T22:34:27.505Z,8.97
2023-05-04T22:38:10.906Z,11.80
2023-05-04T22:41:53.795Z,7.27
2023-05-04T22:45:40.220Z,7.73
2023-05-04T22:49:24.376Z,9.13
2023-05-04T22:53:07.272Z,7.17
2023-05-04T22:56:51.024Z,8.20
2023-05-04T23:00:33.748Z,8.90
2023-05-04T23:04:19.120Z,8.53
2023-05-04T23:08:03.737Z,13.03
2023-05-04T23:11:48.543Z,8.90
2023-05-04T23:15:32.722Z,8.30
2023-05-04T23:19:15.359Z,8.50
2023-05-04T23:22:58.215Z,9.23
2023-05-04T23:26:42.238Z,8.67
2023-05-04T23:30:24.884Z,8.87
2023-05-04T23:34:07.713Z,7.77
2023-05-04T23:37:50.399Z,7.57
2023-05-04T23:41:33.267Z,10.27
2023-05-04T23:45:17.438Z,12.83
2023-05-04T23:49:00.119Z,7.70
2023-05-04T23:52:42.812Z,11.80
2023-05-04T23:56:25.450Z,9.50
